createdAt,value
2022-12-09T00:09:01.180Z,3.26
2022-12-09T00:19:08.797Z,3.38
2022-12-09T00:29:15.314Z,3.37
2022-12-09T00:39:21.608Z,3.38
2022-12-09T00:49:28.435Z,3.36
2022-12-09T00:59:35.077Z,3.46
2022-12-09T01:09:41.402Z,3.53
2022-12-09T01:19:48.277Z,3.57
2022-12-09T01:29:54.651Z,3.55
2022-12-09T01:40:01.007Z,3.52
2022-12-09T01:50:08.312Z,3.54
2022-12-09T02:00:15.647Z,3.41
2022-12-09T02:10:22.833Z,3.19
2022-12-09T02:21:05.764Z,3.17
2022-12-09T02:31:24.073Z,3.10
2022-12-09T02:41:31.965Z,3.10
2022-12-09T02:51:43.276Z,3.01
2022-12-09T03:02:08.275Z,2.98
2022-12-09T03:12:18.958Z,3.04
2022-12-09T03:22:29.247Z,2.99
2022-12-09T03:32:36.374Z,3.03
2022-12-09T03:42:48.643Z,3.10
2022-12-09T03:52:59.962Z,3.07
2022-12-09T04:03:07.914Z,3.10
2022-12-09T04:13:15.598Z,3.17
2022-12-09T04:23:22.211Z,3.00
2022-12-09T04:33:28.888Z,3.00
2022-12-09T04:43:35.725Z,2.98
2022-12-09T04:53:42.841Z,2.92
2022-12-09T05:03:51.194Z,2.93
2022-12-09T05:13:57.917Z,2.76
2022-12-09T05:24:04.449Z,2.64
2022-12-09T05:51:56.176Z,2.61
2022-12-09T06:02:06.928Z,2.61
2022-12-09T06:12:16.972Z,1.87
2022-12-09T06:22:23.560Z,1.87
2022-12-09T06:32:32.123Z,2.12
2022-12-09T06:42:38.967Z,2.19
2022-12-09T06:52:45.443Z,2.26
2022-12-09T07:02:55.638Z,2.21
2022-12-09T07:13:02.342Z,2.21
2022-12-09T07:23:09.489Z,2.28
2022-12-09T07:33:16.038Z,2.08
2022-12-09T07:43:22.503Z,2.26
2022-12-09T07:53:29.103Z,2.55
2022-12-09T08:03:37.444Z,2.62
2022-12-09T08:13:44.465Z,2.36
2022-12-09T08:23:51.642Z,2.51
2022-12-09T08:33:58.585Z,2.57
2022-12-09T08:44:09.656Z,2.64
2022-12-09T08:54:16.067Z,2.67
2022-12-09T09:04:24.198Z,2.98
2022-12-09T09:14:31.277Z,3.40
2022-12-09T09:24:37.813Z,3.76
2022-12-09T09:34:44.407Z,3.69
2022-12-09T09:44:53.551Z,4.20
2022-12-09T09:55:00.066Z,4.29
2022-12-09T10:05:06.972Z,4.26
2022-12-09T10:15:16.255Z,4.62
2022-12-09T10:25:36.642Z,-143.79
2022-12-09T19:38:49.588Z,-143.78
